• Join FlightAware (Why Join?)
  • Login
  • US Flag 
08:31AM EDT


 

Airport Tracker/Info


-or-


 

Live Flight TrackerFlight Track Log ✈ N803ER ✈ 19-Aug-2013 ✈ KBKL - KBKL

Flight Track Log - Related Links

Times and Time Zones

All times are in EDT time to prevent confusion due to time zone crossing. See the N803ER flight status page for this flight to view local times or setup timezone preferences in your user account.

Time Position Orientation Groundspeed Altitude Reporting Facility
EDT Latitude Longitude Course Direction KTS MPH feet Rate Location/Type
12:47PM 41.5128 -81.6922 311° West 65 75 1,000  Level Cleveland Center
12:48PM 41.5331 -81.7231 311° West 108 124 1,900 420 Climbing Cleveland Center
12:49PM 41.5561 -81.7347 339° North 98 113 2,100 60 Climbing Cleveland Center
12:50PM 41.5831 -81.7544 331° Northwest 115 132 2,100 -60 Level Cleveland Center
12:52PM 41.6158 -81.7858 324° Northwest 112 129 2,000 60 Descending Cleveland Center
12:53PM 41.6303 -81.8167 302° West 106 122 2,300 360 Climbing Cleveland Center
12:54PM 41.6275 -81.8639 266° West 103 119 2,800 360 Climbing Cleveland Center
12:55PM 41.6211 -81.8858 249° West 101 116 3,100 120 Climbing Cleveland Center
12:56PM 41.6081 -81.9272 247° West 119 137 3,100 -60 Level Cleveland Center
12:57PM 41.5950 -81.9686 247° West 119 137 3,000  Descending Cleveland Center
12:58PM 41.5778 -82.0208 246° West 117 135 3,100  Climbing Cleveland Center
12:59PM 41.5711 -82.0569 256° West 118 136 3,100 -60 Level Cleveland Center
01:00PM 41.5397 -82.0617 186° South 135 155 3,000  Descending Cleveland Center
01:01PM 41.5064 -82.0694 190° South 118 136 3,100  Climbing Cleveland Center
01:02PM 41.4728 -82.0881 203° Southwest 118 136 3,100  Level Cleveland Center
01:03PM 41.4453 -82.1150 216° Southwest 141 162 3,100  Level Cleveland Center
01:04PM 41.4158 -82.1308 202° Southwest 111 128 3,100  Level Cleveland Center
01:05PM 41.3844 -82.1494 204° Southwest 120 138 3,100 -60 Level Cleveland Center
01:06PM 41.3547 -82.1681 205° Southwest 125 144 3,000 -60 Descending Cleveland Center
01:07PM 41.3439 -82.2011 246° West 118 136 3,000 -360 Level Cleveland Center
01:08PM 41.3289 -82.2367 241° Southwest 109 125 2,400 -300 Descending Cleveland Center
01:09PM 41.3219 -82.2753 257° West 122 140 2,500  Climbing Cleveland Center
01:10PM 41.3319 -82.3197 287° West 113 130 2,500  Level Cleveland Center
01:11PM 41.3067 -82.3219 184° South 121 139 2,500 -60 Level Cleveland Center
01:12PM 41.3136 -82.2806 77° East 107 123 2,400 -420 Descending Cleveland Center
01:13PM 41.3289 -82.2394 64° Northeast 98 113 1,600 -480 Descending Cleveland Center
01:14PM 41.3375 -82.2147 65° Northeast 87 100 1,400 -120 Descending Cleveland Center
01:15PM 41.3483 -82.1792 68° East 87 100 1,400 60 Level Cleveland Center
01:16PM 41.3550 -82.1489 74° East 95 109 1,600 420 Climbing Cleveland Center
01:17PM 41.3803 -82.1411 13° North 86 99 2,300 540 Climbing Cleveland Center
01:18PM 41.4031 -82.1472 349° North 87 100 2,800 360 Climbing Cleveland Center
01:19PM 41.4342 -82.1536 351° North 113 130 3,100 120 Climbing Cleveland Center
01:20PM 41.4317 -82.1950 265° West 115 132 3,100  Level Cleveland Center
01:21PM 41.4247 -82.2392 258° West 117 135 3,200 -60 Climbing Cleveland Center
01:22PM 41.4097 -82.2775 242° Southwest 121 139 3,000 -120 Descending Cleveland Center
01:23PM 41.3964 -82.3186 247° West 121 139 3,000  Level Cleveland Center
01:24PM 41.3772 -82.3542 234° Southwest 116 133 3,000  Level Cleveland Center
01:25PM 41.3619 -82.3925 242° Southwest 116 133 3,100  Climbing Cleveland Center
01:26PM 41.3308 -82.3833 168° South 122 140 3,000  Descending Cleveland Center
01:27PM 41.3019 -82.3686 159° South 119 137 3,100  Climbing Cleveland Center
01:28PM 41.2833 -82.3461 138° Southeast 117 135 3,000 -240 Descending Cleveland Center
01:29PM 41.3031 -82.2969 62° Northeast 90 104 2,600 -420 Descending Cleveland Center
01:30PM 41.3139 -82.2639 66° East 98 113 2,100 -480 Descending Cleveland Center
01:31PM 41.3225 -82.2364 67° East 85 98 1,700 -480 Descending Cleveland Center
01:32PM 41.3336 -82.2064 64° Northeast 90 104 1,200 -240 Descending Cleveland Center
01:33PM 41.3422 -82.1789 67° East 83 96 1,300 240 Climbing Cleveland Center
01:34PM 41.3611 -82.1739 11° North 102 117 1,800 540 Climbing Cleveland Center
01:35PM 41.3544 -82.2069 255° West 102 117 2,400 480 Climbing Cleveland Center
01:36PM 41.3456 -82.2372 249° West 105 121 2,800 360 Climbing Cleveland Center
01:37PM 41.3417 -82.2094 101° East 116 133 3,100 120 Climbing Cleveland Center
01:38PM 41.3528 -82.1708 69° East 113 130 3,100 -60 Level Cleveland Center
01:39PM 41.3714 -82.1714 359° North 115 132 3,000  Descending Cleveland Center
01:40PM 41.3522 -82.2153 240° Southwest 124 143 3,100  Climbing Cleveland Center
01:41PM 41.3417 -82.2231 209° Southwest 125 144 3,100 -60 Level Cleveland Center
01:42PM 41.3547 -82.1792 68° East 116 133 3,000 -60 Descending Cleveland Center
01:43PM 41.3717 -82.1658 31° Northeast 108 124 3,000  Level Cleveland Center
01:44PM 41.3606 -82.2042 249° West 113 130 3,000  Level Cleveland Center
01:45PM 41.3483 -82.1875 134° Southeast 133 153 3,000  Level Cleveland Center
01:46PM 41.3656 -82.1519 57° Northeast 114 131 3,000  Level Cleveland Center
01:47PM 41.3967 -82.1553 355° North 107 123 3,000  Level Cleveland Center
01:48PM 41.4261 -82.1450 15° North 111 128 3,100  Climbing Cleveland Center
01:49PM 41.4472 -82.1289 30° Northeast 120 138 3,100  Level Cleveland Center
01:50PM 41.4747 -82.0992 39° Northeast 118 136 3,100 -60 Level Cleveland Center
01:51PM 41.5022 -82.0692 39° Northeast 122 140 3,000 -60 Descending Cleveland Center
01:52PM 41.5214 -82.0364 52° Northeast 115 132 3,000  Level Cleveland Center
01:53PM 41.5425 -82.0064 47° Northeast 122 140 3,100  Climbing Cleveland Center
01:54PM 41.5658 -81.9736 46° Northeast 116 133 3,100  Level Cleveland Center
01:55PM 41.5769 -81.9239 73° East 127 146 3,100  Level Cleveland Center
01:56PM 41.5919 -81.8881 61° Northeast 109 125 3,100  Level Cleveland Center
01:57PM 41.6050 -81.8467 67° East 131 151 3,100  Level Cleveland Center
01:58PM 41.6219 -81.8053 61° Northeast 118 136 3,100  Level Cleveland Center
01:59PM 41.6369 -81.7667 63° Northeast 116 133 3,100  Level Cleveland Center
02:00PM 41.6542 -81.7308 57° Northeast 154 177 3,100  Level Cleveland Center
02:01PM 41.6731 -81.6950 55° Northeast 121 139 3,100  Level Cleveland Center
02:02PM 41.6758 -81.6450 86° East 133 153 3,100 -60 Level Cleveland Center
02:03PM 41.6636 -81.6006 110° East 126 145 3,000 -60 Descending Cleveland Center
02:04PM 41.6431 -81.5722 134° Southeast 114 131 3,000  Level Cleveland Center
02:05PM 41.6183 -81.5358 132° Southeast 122 140 3,000  Level Cleveland Center
02:06PM 41.5892 -81.5381 183° South 116 133 3,100 -300 Climbing Cleveland Center
02:07PM 41.5742 -81.5628 231° Southwest 111 128 2,500 -420 Descending Cleveland Center
02:08PM 41.5572 -81.5958 236° Southwest 92 106 2,300 -420 Descending Cleveland Center
02:09PM 41.5467 -81.6236 243° Southwest 78 90 1,700 -300 Descending Cleveland Center
02:10PM 41.5381 -81.6511 247° West 94 108 1,800 -60 Climbing Cleveland Center
02:11PM 41.5294 -81.6842 251° West 107 123 1,600 -300 Descending Cleveland Center
02:12PM 41.5144 -81.7144 237° Southwest 92 106 1,300 -300 Descending Cleveland Center